首页
METAR-TAF:

METAR-TAF

机场 :

巴黎-奥利机场

巴黎-奥利, 法国

纬度: 48-44N, 经度: 002-24E, 海拔: 89米

当前天气观测

该预报发布于1小时和0分钟前的07:30 UTC
风速2节,风向多变
温度 5°C
湿度 93%
气压 1010 hPa
能见度10公里或以上
阴天层高于3700英尺

METAR: LFPO 170730Z VRB02KT 9999 OVC037 05/04 Q1010 TEMPO 3000 BR

时间: 09:30 (08:30 UTC)

预报

该预报发布于3小时和30分钟前的05:00 UTC
预报有效从17日的 06点(UTC)到 18日的 12点(UTC)
风速2节,风向多变
能见度10公里或以上
多云层高于3000英尺
几率 40% :
短暂存在
从 17日的 06点(UTC)到 17日的 10点(UTC)
能見度: 3000
轻雾
几率 30% :
短暂存在
从 17日的 06点(UTC)到 17日的 09点(UTC)
能見度: 0800
多云层高于200英尺
成为
从 17日的 09点(UTC)到 17日的 11点(UTC)
风速5节,风向北转东北
成为
从 17日的 18点(UTC)到 17日的 20点(UTC)
风速5节,风向北转西北
几率 40% :
短暂存在
从 18日的 00点(UTC)到 18日的 06点(UTC)
能見度: 4000
多云层高于500英尺
轻雾
短暂存在
从 18日的 08点(UTC)到 18日的 12点(UTC)
能見度: 4000
多云层高于1000英尺
小雨

TAF: LFPO 170500Z 1706/1812 VRB02KT 9999 BKN030 PROB40 TEMPO 1706/1710 3000 BR PROB30 TEMPO 1706/1709 0800 FG BKN002 BECMG 1709/1711 02005KT BECMG 1718/1720 34005KT PROB40 TEMPO 1800/1806 4000 BR BKN005 TEMPO 1808/1812 4000 -RA BKN010

超过4000个机场的气象观测和天气预报(METAR&TAF报告)。

可查询的气象台以黄色和红色小点在地图上表示。

将鼠标移到小点上方,可查看气象台名称。

然后点击查看天气观测和预报。

如需切换地图:点击带黑十字的绿色按钮放大地图;点击带横线的绿色按钮缩小地图;或者点击绿色箭头查看邻近地区的地图。


METAR-TAF: